createdAt,value
2023-01-09T00:00:25.901Z,6.07
2023-01-09T00:02:53.057Z,8.07
2023-01-09T00:05:20.815Z,7.73
2023-01-09T00:07:47.460Z,7.60
2023-01-09T00:10:15.472Z,6.87
2023-01-09T00:12:42.427Z,6.47
2023-01-09T00:15:09.777Z,5.77
2023-01-09T00:17:36.458Z,5.50
2023-01-09T00:20:04.209Z,4.27
2023-01-09T00:22:31.501Z,3.33
2023-01-09T00:24:58.238Z,3.00
2023-01-09T00:27:24.934Z,2.50
2023-01-09T00:29:51.569Z,1.90
2023-01-09T00:32:20.284Z,1.80
2023-01-09T00:34:47.711Z,1.70
2023-01-09T00:37:14.928Z,1.83
2023-01-09T00:39:42.397Z,1.40
2023-01-09T00:42:13.586Z,1.53
2023-01-09T00:44:48.983Z,1.27
2023-01-09T00:47:24.463Z,1.40
2023-01-09T00:49:53.024Z,1.57
2023-01-09T00:52:20.300Z,1.30
2023-01-09T00:54:47.478Z,1.30
2023-01-09T00:57:14.967Z,1.23
2023-01-09T00:59:42.414Z,1.40
2023-01-09T01:02:09.613Z,1.20
2023-01-09T01:04:55.166Z,1.33
2023-01-09T01:07:41.006Z,1.70
2023-01-09T01:10:11.743Z,1.00
2023-01-09T01:12:40.097Z,1.60
2023-01-09T01:15:07.656Z,1.57
2023-01-09T01:17:38.849Z,1.90
2023-01-09T01:20:07.606Z,1.60
2023-01-09T01:22:34.431Z,1.93
2023-01-09T01:25:01.422Z,1.90
2023-01-09T01:27:28.745Z,1.80
2023-01-09T01:29:55.716Z,2.23
2023-01-09T01:32:22.656Z,1.60
2023-01-09T01:34:49.381Z,1.90
2023-01-09T01:37:16.043Z,1.83
2023-01-09T01:39:42.839Z,1.90
2023-01-09T01:42:12.776Z,1.80
2023-01-09T01:45:10.044Z,2.00
2023-01-09T01:47:39.496Z,1.70
2023-01-09T01:50:16.087Z,1.70
2023-01-09T01:52:47.017Z,1.53
2023-01-09T01:55:13.922Z,1.53
2023-01-09T01:57:45.929Z,1.20
2023-01-09T02:00:13.543Z,0.97
2023-01-09T02:02:40.533Z,0.80
2023-01-09T02:05:07.481Z,0.77
2023-01-09T02:07:34.926Z,0.50
2023-01-09T02:10:01.769Z,0.50
2023-01-09T02:12:28.432Z,0.37
2023-01-09T02:15:11.767Z,0.43
2023-01-09T02:17:47.511Z,0.30
2023-01-09T02:20:36.001Z,0.20
2023-01-09T02:23:11.762Z,0.30
2023-01-09T02:25:44.331Z,0.20
2023-01-09T02:28:10.965Z,0.30
2023-01-09T02:30:58.013Z,0.30
2023-01-09T02:33:42.683Z,0.40
2023-01-09T02:36:25.928Z,0.30
2023-01-09T02:38:52.481Z,0.30
2023-01-09T02:41:29.801Z,0.40
2023-01-09T02:44:29.679Z,0.20
2023-01-09T02:47:18.027Z,0.20
2023-01-09T02:49:55.146Z,0.40
2023-01-09T02:52:52.827Z,0.23
2023-01-09T02:55:43.096Z,0.20
2023-01-09T02:58:51.217Z,0.30
2023-01-09T03:01:55.054Z,0.30
2023-01-09T03:04:53.636Z,0.20
2023-01-09T03:07:23.202Z,0.20
2023-01-09T03:09:56.619Z,0.30
2023-01-09T03:12:28.044Z,0.20
2023-01-09T03:14:59.054Z,0.33
2023-01-09T03:17:35.456Z,0.10
2023-01-09T03:20:04.773Z,0.20
2023-01-09T03:22:31.457Z,0.20
2023-01-09T03:24:58.150Z,0.20
2023-01-09T03:27:24.927Z,0.10
2023-01-09T03:29:53.275Z,0.10
2023-01-09T03:32:20.085Z,0.10
2023-01-09T03:34:49.258Z,0.17
2023-01-09T03:37:15.992Z,0.20
2023-01-09T03:39:43.511Z,0.10
2023-01-09T03:42:10.154Z,0.10
2023-01-09T03:44:39.547Z,0.07
2023-01-09T03:47:06.196Z,0.10
2023-01-09T03:49:32.856Z,0.10
2023-01-09T03:51:59.478Z,0.27
2023-01-09T03:54:26.198Z,0.03
2023-01-09T03:56:52.944Z,0.10
2023-01-09T03:59:19.581Z,0.10
2023-01-09T04:01:46.317Z,0.13
2023-01-09T04:04:13.092Z,0.40
2023-01-09T04:06:39.731Z,0.20
2023-01-09T04:09:06.350Z,0.30
2023-01-09T04:11:33.039Z,0.20
2023-01-09T04:13:59.741Z,0.30
2023-01-09T04:16:26.521Z,0.10
2023-01-09T04:18:53.218Z,0.30
2023-01-09T04:21:20.071Z,0.10
2023-01-09T04:23:46.758Z,0.20
2023-01-09T04:26:13.539Z,0.20
2023-01-09T04:28:40.266Z,0.30
2023-01-09T04:31:06.882Z,0.07
2023-01-09T04:33:33.597Z,0.27
2023-01-09T04:36:02.044Z,0.00
2023-01-09T04:38:28.783Z,0.10
2023-01-09T04:40:55.428Z,0.00
2023-01-09T04:43:22.109Z,0.00
2023-01-09T04:45:48.801Z,0.10
2023-01-09T04:48:15.566Z,0.07
2023-01-09T04:50:42.190Z,0.00
2023-01-09T04:53:09.092Z,0.00
2023-01-09T04:55:35.767Z,0.00
2023-01-09T04:58:02.381Z,0.00
2023-01-09T05:00:29.255Z,0.00
2023-01-09T05:02:56.893Z,0.10
2023-01-09T05:05:23.540Z,0.10
2023-01-09T05:07:50.384Z,0.00
2023-01-09T05:10:17.049Z,0.10
2023-01-09T05:12:43.681Z,0.10
2023-01-09T05:15:10.807Z,0.20
2023-01-09T05:17:37.531Z,0.30
2023-01-09T05:20:04.823Z,0.60
2023-01-09T05:22:31.514Z,0.40
2023-01-09T05:25:00.329Z,0.40
2023-01-09T05:27:27.358Z,0.87
2023-01-09T05:29:54.071Z,0.90
2023-01-09T05:32:20.711Z,0.47
2023-01-09T05:34:47.395Z,0.20
2023-01-09T05:37:14.128Z,0.20
2023-01-09T05:39:40.788Z,0.20
2023-01-09T05:42:07.455Z,0.30
2023-01-09T05:44:34.124Z,0.60
2023-01-09T05:47:02.712Z,0.40
2023-01-09T05:49:29.568Z,0.40
2023-01-09T05:51:56.279Z,0.40
2023-01-09T05:54:22.971Z,0.30
2023-01-09T05:56:49.677Z,0.40
2023-01-09T05:59:16.343Z,0.50
2023-01-09T06:01:43.090Z,0.20
2023-01-09T06:04:09.730Z,0.40
2023-01-09T06:06:36.444Z,0.70
2023-01-09T06:09:03.587Z,0.37
2023-01-09T06:11:30.282Z,0.60
2023-01-09T06:13:57.019Z,0.30
2023-01-09T06:16:23.766Z,0.20
2023-01-09T06:18:50.572Z,0.20
2023-01-09T06:21:17.237Z,0.30
2023-01-09T06:23:43.906Z,0.10
2023-01-09T06:26:10.756Z,0.00
2023-01-09T06:28:37.512Z,0.10
2023-01-09T06:31:04.460Z,0.13
2023-01-09T06:33:32.036Z,0.20
2023-01-09T06:35:58.686Z,0.20
2023-01-09T06:38:25.369Z,0.30
2023-01-09T06:40:52.185Z,0.50
2023-01-09T06:43:18.852Z,0.33
2023-01-09T06:45:45.487Z,0.50
2023-01-09T06:48:12.440Z,0.30
2023-01-09T06:50:39.129Z,0.20
2023-01-09T06:53:05.790Z,0.50
2023-01-09T06:55:32.624Z,0.30
2023-01-09T06:57:59.377Z,0.30
2023-01-09T07:00:27.148Z,0.57
2023-01-09T07:02:53.862Z,0.50
2023-01-09T07:05:20.498Z,0.40
2023-01-09T07:07:47.176Z,0.50
2023-01-09T07:10:14.956Z,0.67
2023-01-09T07:12:41.713Z,0.50
2023-01-09T07:15:08.858Z,0.30
2023-01-09T07:17:35.576Z,0.37
2023-01-09T07:20:03.333Z,0.40
2023-01-09T07:22:30.012Z,0.50
2023-01-09T07:24:56.742Z,0.40
2023-01-09T07:27:23.479Z,0.40
2023-01-09T07:29:51.199Z,0.77
2023-01-09T07:32:17.997Z,0.60
2023-01-09T07:34:44.649Z,0.40
2023-01-09T07:37:11.303Z,0.40
2023-01-09T07:39:42.103Z,0.30
2023-01-09T07:42:08.816Z,0.40
2023-01-09T07:44:35.476Z,0.83
2023-01-09T07:47:03.376Z,0.37
2023-01-09T07:49:30.135Z,0.60
2023-01-09T07:51:56.791Z,0.80
2023-01-09T07:54:23.493Z,0.57
2023-01-09T07:56:50.283Z,0.40
2023-01-09T07:59:17.031Z,0.50
2023-01-09T08:01:46.609Z,0.47
2023-01-09T08:04:13.306Z,0.93
2023-01-09T08:06:40.044Z,0.80
2023-01-09T08:09:06.719Z,0.50
2023-01-09T08:11:33.379Z,0.50
2023-01-09T08:14:00.186Z,0.40
2023-01-09T08:16:26.857Z,0.50
2023-01-09T08:18:53.617Z,0.40
2023-01-09T08:21:20.381Z,0.50
2023-01-09T08:23:47.161Z,0.50
2023-01-09T08:26:13.935Z,0.40
2023-01-09T08:28:40.579Z,0.50
2023-01-09T08:31:07.318Z,0.40
2023-01-09T08:33:34.045Z,0.60
2023-01-09T08:36:00.881Z,0.50
2023-01-09T08:38:27.617Z,0.73
2023-01-09T08:40:56.948Z,0.90
2023-01-09T08:43:42.726Z,1.00
2023-01-09T08:46:38.126Z,1.70
2023-01-09T08:49:04.859Z,1.23
2023-01-09T08:51:34.095Z,0.80
2023-01-09T08:54:00.795Z,0.93
2023-01-09T08:56:27.540Z,0.50
2023-01-09T08:58:54.216Z,0.50
2023-01-09T09:01:21.051Z,0.60
2023-01-09T09:03:48.236Z,0.67
2023-01-09T09:06:14.947Z,0.40
2023-01-09T09:08:41.701Z,0.50
2023-01-09T09:11:08.430Z,0.60
2023-01-09T09:13:35.252Z,0.63
2023-01-09T09:16:02.070Z,0.70
2023-01-09T09:18:28.893Z,0.40
2023-01-09T09:20:55.614Z,0.47
2023-01-09T09:23:23.496Z,0.50
2023-01-09T09:25:50.207Z,0.50
2023-01-09T09:28:17.104Z,0.73
2023-01-09T09:30:43.969Z,0.50
2023-01-09T09:33:10.736Z,0.47
2023-01-09T09:35:37.719Z,0.40
2023-01-09T09:38:05.912Z,0.50
2023-01-09T09:40:53.490Z,0.70
2023-01-09T09:43:43.273Z,0.60
2023-01-09T09:46:24.721Z,0.70
2023-01-09T09:48:56.777Z,1.13
2023-01-09T09:51:51.330Z,0.67
2023-01-09T09:54:24.413Z,0.60
2023-01-09T09:56:55.841Z,0.50
2023-01-09T09:59:27.112Z,0.50
2023-01-09T10:02:02.593Z,0.80
2023-01-09T10:04:35.821Z,0.50
2023-01-09T10:07:19.773Z,0.60
2023-01-09T10:09:49.138Z,0.43
2023-01-09T10:12:31.910Z,0.50
2023-01-09T10:15:02.364Z,0.77
2023-01-09T10:17:41.194Z,0.80
2023-01-09T10:20:37.423Z,0.70
2023-01-09T10:23:22.369Z,0.50
2023-01-09T10:26:05.244Z,0.63
2023-01-09T10:28:34.801Z,0.60
2023-01-09T10:31:08.989Z,0.50
2023-01-09T10:33:59.481Z,0.50
2023-01-09T10:36:36.669Z,0.70
2023-01-09T10:39:08.366Z,0.73
2023-01-09T10:41:46.437Z,0.80
2023-01-09T10:44:37.565Z,0.77
2023-01-09T10:47:22.335Z,0.50
2023-01-09T10:49:52.800Z,0.63
2023-01-09T10:52:25.194Z,0.60
2023-01-09T10:54:56.503Z,0.60
2023-01-09T10:57:38.364Z,0.63
2023-01-09T11:00:06.448Z,0.63
2023-01-09T11:02:35.828Z,0.67
2023-01-09T11:05:02.624Z,0.70
2023-01-09T11:07:37.629Z,0.73
2023-01-09T11:10:11.800Z,0.60
2023-01-09T11:12:39.334Z,0.80
2023-01-09T11:15:21.047Z,0.90
2023-01-09T11:17:49.827Z,0.67
2023-01-09T11:20:21.064Z,0.83
2023-01-09T11:22:49.932Z,0.73
2023-01-09T11:25:25.348Z,0.83
2023-01-09T11:28:05.987Z,0.70
2023-01-09T11:30:50.956Z,0.40
2023-01-09T11:33:24.562Z,0.37
2023-01-09T11:35:59.826Z,0.60
2023-01-09T11:38:27.534Z,0.87
2023-01-09T11:41:00.938Z,0.93
2023-01-09T11:43:35.378Z,0.60
2023-01-09T11:46:08.739Z,0.90
2023-01-09T11:48:56.942Z,0.50
2023-01-09T11:51:31.900Z,0.90
2023-01-09T11:54:07.489Z,0.70
2023-01-09T11:56:36.759Z,0.60
2023-01-09T11:59:14.026Z,0.50
2023-01-09T12:02:18.246Z,0.60
2023-01-09T12:05:00.973Z,0.53
2023-01-09T12:07:57.626Z,0.90
2023-01-09T12:10:58.030Z,0.47
2023-01-09T12:13:38.963Z,0.60
2023-01-09T12:16:31.706Z,0.73
2023-01-09T12:19:06.249Z,0.63
2023-01-09T12:21:39.943Z,0.70
2023-01-09T12:24:29.490Z,0.77
2023-01-09T12:27:17.416Z,0.77
2023-01-09T12:30:08.136Z,0.80
2023-01-09T12:33:22.255Z,0.90
2023-01-09T12:36:06.447Z,0.70
2023-01-09T12:38:47.842Z,0.57
2023-01-09T12:41:33.675Z,0.50
2023-01-09T12:44:34.418Z,0.63
2023-01-09T12:47:38.875Z,0.60
2023-01-09T12:50:14.731Z,0.63
2023-01-09T12:52:49.312Z,0.93
2023-01-09T12:55:20.964Z,0.70
2023-01-09T12:57:56.101Z,0.60
2023-01-09T13:00:30.004Z,1.00
2023-01-09T13:03:12.922Z,1.27
2023-01-09T13:05:45.438Z,1.13
2023-01-09T13:08:18.112Z,1.17
2023-01-09T13:11:19.981Z,1.10
2023-01-09T13:14:09.302Z,0.60
2023-01-09T13:16:48.807Z,0.70
2023-01-09T13:19:23.499Z,0.77
2023-01-09T13:21:51.237Z,1.13
2023-01-09T13:24:26.777Z,0.80
2023-01-09T13:27:10.880Z,0.70
2023-01-09T13:29:44.028Z,0.87
2023-01-09T13:32:25.968Z,0.80
2023-01-09T13:34:56.405Z,0.87
2023-01-09T13:37:26.954Z,0.30
2023-01-09T13:40:20.039Z,0.60
2023-01-09T13:43:05.198Z,0.60
2023-01-09T13:45:39.504Z,0.47
2023-01-09T13:48:14.441Z,0.50
2023-01-09T13:50:42.201Z,0.47
2023-01-09T13:53:18.168Z,0.40
2023-01-09T13:55:57.166Z,0.20
2023-01-09T13:58:50.653Z,0.20
2023-01-09T14:01:36.020Z,0.37
2023-01-09T14:04:23.727Z,0.30
2023-01-09T14:07:14.525Z,0.23
2023-01-09T14:09:48.684Z,0.20
2023-01-09T14:12:19.379Z,0.20
2023-01-09T14:14:46.850Z,0.10
2023-01-09T14:17:22.021Z,0.10
2023-01-09T14:19:56.905Z,0.20
2023-01-09T14:22:30.906Z,0.10
2023-01-09T14:25:18.170Z,0.30
2023-01-09T14:28:00.377Z,0.20
2023-01-09T14:30:27.121Z,0.43
2023-01-09T14:33:36.556Z,0.70
2023-01-09T14:36:21.712Z,0.27
2023-01-09T14:38:52.702Z,0.40
2023-01-09T14:41:47.103Z,0.40
2023-01-09T14:44:19.730Z,0.40
2023-01-09T14:46:48.202Z,0.20
2023-01-09T14:49:39.471Z,0.57
2023-01-09T14:52:20.370Z,7.63
2023-01-09T14:54:49.851Z,3.53
2023-01-09T14:57:31.117Z,1.60
2023-01-09T15:00:27.119Z,0.97
2023-01-09T15:02:54.286Z,0.70
2023-01-09T15:05:24.941Z,0.50
2023-01-09T15:08:04.353Z,1.03
2023-01-09T15:10:35.166Z,0.50
2023-01-09T15:13:05.065Z,0.60
2023-01-09T15:15:31.857Z,0.80
2023-01-09T15:18:05.277Z,0.90
2023-01-09T15:20:34.258Z,0.70
2023-01-09T15:23:04.148Z,0.83
2023-01-09T15:25:42.700Z,0.50
2023-01-09T15:28:30.877Z,0.80
2023-01-09T15:31:16.360Z,1.07
2023-01-09T15:33:45.966Z,0.80
2023-01-09T15:36:18.385Z,0.80
2023-01-09T15:38:46.884Z,0.80
2023-01-09T15:41:37.923Z,0.60
2023-01-09T15:44:07.231Z,0.70
2023-01-09T15:46:34.039Z,0.93
2023-01-09T15:49:02.240Z,0.70
2023-01-09T15:51:32.571Z,0.77
2023-01-09T15:54:01.201Z,0.50
2023-01-09T15:56:31.228Z,0.50
2023-01-09T15:58:59.423Z,0.43
2023-01-09T16:01:33.641Z,0.50
2023-01-09T16:04:12.375Z,0.40
2023-01-09T16:06:48.531Z,0.37
2023-01-09T16:09:18.102Z,0.40
2023-01-09T16:11:53.183Z,0.40
2023-01-09T16:14:41.969Z,0.40
2023-01-09T16:17:18.234Z,0.40
2023-01-09T16:19:51.231Z,0.40
2023-01-09T16:22:33.046Z,0.33
2023-01-09T16:25:36.088Z,0.43
2023-01-09T16:30:58.936Z,0.60
2023-01-09T16:33:28.732Z,1.10
2023-01-09T16:35:56.140Z,19.43
2023-01-09T16:38:22.933Z,11.13
2023-01-09T16:41:18.535Z,5.00
2023-01-09T16:43:46.391Z,4.20
2023-01-09T16:46:17.122Z,1.43
2023-01-09T16:48:44.015Z,5.57
2023-01-09T16:51:20.783Z,3.33
2023-01-09T16:53:48.581Z,0.90
2023-01-09T16:56:19.919Z,0.60
2023-01-09T16:58:46.700Z,0.50
2023-01-09T17:01:14.858Z,0.40
2023-01-09T17:03:43.946Z,0.70
2023-01-09T17:06:31.655Z,0.90
2023-01-09T17:08:58.931Z,0.53
2023-01-09T17:11:31.967Z,0.67
2023-01-09T17:14:02.378Z,0.60
2023-01-09T17:16:29.895Z,0.57
2023-01-09T17:18:56.932Z,0.67
2023-01-09T17:21:26.837Z,0.90
2023-01-09T17:24:12.393Z,0.67
2023-01-09T17:26:59.708Z,0.70
2023-01-09T17:29:27.041Z,0.40
2023-01-09T17:31:55.376Z,0.50
2023-01-09T17:34:22.115Z,0.60
2023-01-09T17:36:48.783Z,0.47
2023-01-09T17:39:17.350Z,0.70
2023-01-09T17:41:44.238Z,0.90
2023-01-09T17:44:12.015Z,0.60
2023-01-09T17:46:41.301Z,0.60
2023-01-09T17:49:15.100Z,0.70
2023-01-09T17:51:41.793Z,0.70
2023-01-09T17:54:11.619Z,0.97
2023-01-09T17:56:40.605Z,0.63
2023-01-09T17:59:09.762Z,0.73
2023-01-09T18:01:36.547Z,0.60
2023-01-09T18:04:03.345Z,0.80
2023-01-09T18:06:30.440Z,0.90
2023-01-09T18:08:58.325Z,0.90
2023-01-09T18:11:25.716Z,1.20
2023-01-09T18:13:56.340Z,1.60
2023-01-09T18:16:25.567Z,1.30
2023-01-09T18:18:54.025Z,2.57
2023-01-09T18:21:23.688Z,1.93
2023-01-09T18:23:50.563Z,0.97
2023-01-09T18:26:21.192Z,0.90
2023-01-09T18:28:50.520Z,0.90
2023-01-09T18:31:22.114Z,0.60
2023-01-09T18:33:52.824Z,0.90
2023-01-09T18:36:21.304Z,1.00
2023-01-09T18:38:53.292Z,0.83
2023-01-09T18:41:20.913Z,2.50
2023-01-09T18:43:54.590Z,1.40
2023-01-09T18:46:24.628Z,1.50
2023-01-09T18:48:57.599Z,1.17
2023-01-09T18:51:27.423Z,0.70
2023-01-09T18:53:55.071Z,1.10
2023-01-09T18:56:22.570Z,0.90
2023-01-09T18:58:49.534Z,1.73
2023-01-09T19:01:16.966Z,1.33
2023-01-09T19:03:45.141Z,1.10
2023-01-09T19:06:12.090Z,0.80
2023-01-09T19:08:38.895Z,1.30
2023-01-09T19:11:06.019Z,1.00
2023-01-09T19:13:35.561Z,1.60
2023-01-09T19:16:04.102Z,1.90
2023-01-09T19:18:34.996Z,1.60
2023-01-09T19:21:02.140Z,1.60
2023-01-09T19:23:29.157Z,2.07
2023-01-09T19:25:57.666Z,2.00
2023-01-09T19:28:24.426Z,1.93
2023-01-09T19:30:57.342Z,2.80
2023-01-09T19:33:25.267Z,2.10
2023-01-09T19:35:53.071Z,2.03
2023-01-09T19:38:23.216Z,1.40
2023-01-09T19:40:50.483Z,1.70
2023-01-09T19:43:25.964Z,2.00
2023-01-09T19:45:54.976Z,1.50
2023-01-09T19:48:23.238Z,1.20
2023-01-09T19:50:50.097Z,1.20
2023-01-09T19:53:16.891Z,0.90
2023-01-09T19:55:43.661Z,0.70
2023-01-09T19:58:11.054Z,1.10
2023-01-09T20:00:37.950Z,0.73
2023-01-09T20:03:04.725Z,1.30
2023-01-09T20:05:32.345Z,1.37
2023-01-09T20:07:59.140Z,1.00
2023-01-09T20:10:26.008Z,1.50
2023-01-09T20:12:55.620Z,1.40
2023-01-09T20:15:22.832Z,1.50
2023-01-09T20:17:53.098Z,1.90
2023-01-09T20:20:20.001Z,2.37
2023-01-09T20:22:46.743Z,1.90
2023-01-09T20:25:13.454Z,2.07
2023-01-09T20:27:40.219Z,2.33
2023-01-09T20:30:07.863Z,2.33
2023-01-09T20:32:34.603Z,1.80
2023-01-09T20:35:02.403Z,1.40
2023-01-09T20:37:29.159Z,1.40
2023-01-09T20:39:58.709Z,1.60
2023-01-09T20:42:25.403Z,1.27
2023-01-09T20:44:52.231Z,1.13
2023-01-09T20:47:22.043Z,1.10
2023-01-09T20:49:48.724Z,1.70
2023-01-09T20:52:15.435Z,1.33
2023-01-09T20:54:42.799Z,1.60
2023-01-09T20:57:11.967Z,1.13
2023-01-09T20:59:38.743Z,1.57
2023-01-09T21:02:05.492Z,1.90
2023-01-09T21:04:32.306Z,1.90
2023-01-09T21:06:59.048Z,1.57
2023-01-09T21:09:26.125Z,2.03
2023-01-09T21:11:52.810Z,2.00
2023-01-09T21:14:20.049Z,1.87
2023-01-09T21:16:54.705Z,1.40
2023-01-09T21:19:24.818Z,1.20
2023-01-09T21:21:53.258Z,0.90
2023-01-09T21:24:20.439Z,1.00
2023-01-09T21:26:47.064Z,1.33
2023-01-09T21:29:13.884Z,1.20
2023-01-09T21:31:40.753Z,1.10
2023-01-09T21:34:08.295Z,1.10
2023-01-09T21:36:35.939Z,0.93
2023-01-09T21:39:07.664Z,1.40
2023-01-09T21:41:53.753Z,1.23
2023-01-09T21:44:39.033Z,1.03
2023-01-09T21:47:05.687Z,0.70
2023-01-09T21:49:35.981Z,0.90
2023-01-09T21:52:04.444Z,0.93
2023-01-09T21:54:31.602Z,1.37
2023-01-09T21:56:59.007Z,1.50
2023-01-09T21:59:25.806Z,2.47
2023-01-09T22:01:52.593Z,1.57
2023-01-09T22:04:21.647Z,1.60
2023-01-09T22:06:48.984Z,1.73
2023-01-09T22:09:16.487Z,1.50
2023-01-09T22:11:43.881Z,1.83
2023-01-09T22:14:15.829Z,1.60
2023-01-09T22:16:43.989Z,2.03
2023-01-09T22:19:14.834Z,2.10
2023-01-09T22:21:41.534Z,1.90
2023-01-09T22:24:09.268Z,1.73
2023-01-09T22:26:35.996Z,1.40
2023-01-09T22:29:02.736Z,2.00
2023-01-09T22:31:29.599Z,2.80
2023-01-09T22:33:58.450Z,2.30
2023-01-09T22:36:27.117Z,6.20
2023-01-09T22:38:55.264Z,6.37
2023-01-09T22:41:23.385Z,9.63
2023-01-09T22:43:50.139Z,9.13
2023-01-09T22:46:16.882Z,4.13
2023-01-09T22:48:43.609Z,6.03
2023-01-09T22:51:16.052Z,3.73
2023-01-09T22:53:43.065Z,3.50
2023-01-09T22:56:15.931Z,3.07
2023-01-09T22:58:44.745Z,3.93
2023-01-09T23:01:12.720Z,1.90
2023-01-09T23:03:39.909Z,1.60
2023-01-09T23:06:12.048Z,1.80
2023-01-09T23:08:39.199Z,1.40
2023-01-09T23:11:08.890Z,2.07
2023-01-09T23:13:36.187Z,1.87
2023-01-09T23:16:02.901Z,3.40
2023-01-09T23:18:29.752Z,3.07
2023-01-09T23:20:58.890Z,2.00
2023-01-09T23:23:27.215Z,2.77
2023-01-09T23:25:56.498Z,2.20
2023-01-09T23:28:24.693Z,1.90
2023-01-09T23:30:51.762Z,1.50
2023-01-09T23:33:20.309Z,2.00
2023-01-09T23:35:50.409Z,2.27
2023-01-09T23:38:17.094Z,2.03
2023-01-09T23:40:43.838Z,1.37
2023-01-09T23:43:11.948Z,2.10
2023-01-09T23:45:40.813Z,1.87
2023-01-09T23:48:10.181Z,1.20
2023-01-09T23:50:36.878Z,1.23
2023-01-09T23:53:05.217Z,1.40
2023-01-09T23:55:32.235Z,0.90
2023-01-09T23:57:58.917Z,0.60
